Time;durP1;ratioP1;P1;durP2;ratioP2;P2;SDS_P1;SDS_P2;PMS_P1;PMS_P2;Temp;Humidity;BMP_temperature;BMP_pressure;BME280_temperature;BME280_humidity;BME280_pressure;Samples;Min_cycle;Max_cycle;Signal;HPM_P1;HPM_P2
2021/11/03 00:01:00;;;;;;;23.08;17.48;;;5.90;99.90;;;;;;4975166;28;20579;-62
2021/11/03 00:03:26;;;;;;;22.83;17.98;;;5.90;99.90;;;;;;4973210;28;20387;-62
2021/11/03 00:05:53;;;;;;;23.33;17.92;;;5.80;99.90;;;;;;4973503;28;20039;-62
2021/11/03 00:08:26;;;;;;;22.38;17.75;;;5.70;99.90;;;;;;4973513;28;20023;-62
2021/11/03 00:10:53;;;;;;;27.67;19.08;;;5.70;99.90;;;;;;4975927;28;20031;-63
2021/11/03 00:13:22;;;;;;;22.73;17.80;;;5.60;99.90;;;;;;4971987;28;20109;-62
2021/11/03 00:15:48;;;;;;;20.67;15.40;;;5.60;99.90;;;;;;4975512;28;20027;-62
2021/11/03 00:18:14;;;;;;;18.88;14.82;;;5.60;99.90;;;;;;4973681;28;20035;-62
2021/11/03 00:20:40;;;;;;;22.88;17.27;;;5.60;99.90;;;;;;4973240;28;20041;-62
2021/11/03 00:23:05;;;;;;;27.33;19.33;;;5.60;99.90;;;;;;4975081;28;20479;-62
2021/11/03 00:25:31;;;;;;;23.83;17.20;;;5.60;99.90;;;;;;4970635;28;20129;-62
2021/11/03 00:27:57;;;;;;;22.63;17.52;;;5.60;99.90;;;;;;4974171;28;20031;-62
2021/11/03 00:30:23;;;;;;;21.55;16.33;;;5.60;99.90;;;;;;4973411;28;20480;-62
2021/11/03 00:32:49;;;;;;;25.75;18.90;;;5.60;99.90;;;;;;4974510;28;20049;-62
2021/11/03 00:35:16;;;;;;;23.23;18.15;;;5.50;99.90;;;;;;4975113;28;20019;-63
2021/11/03 00:37:41;;;;;;;26.02;18.58;;;5.50;99.90;;;;;;4987129;28;20033;-62
2021/11/03 00:40:08;;;;;;;23.35;17.98;;;5.50;99.90;;;;;;4979095;28;20019;-62
2021/11/03 00:42:34;;;;;;;26.73;18.42;;;5.40;99.90;;;;;;4976330;28;20731;-63
2021/11/03 00:44:59;;;;;;;24.38;17.92;;;5.40;99.90;;;;;;4978612;28;20027;-62
2021/11/03 00:47:25;;;;;;;23.98;17.65;;;5.30;99.90;;;;;;4977014;28;20499;-62
2021/11/03 00:49:51;;;;;;;24.17;17.10;;;5.30;99.90;;;;;;4976730;28;20022;-62
2021/11/03 00:52:17;;;;;;;25.10;18.05;;;5.30;99.90;;;;;;4975959;28;20038;-62
2021/11/03 00:54:43;;;;;;;22.42;16.70;;;5.30;99.90;;;;;;4977097;28;20027;-62
2021/11/03 00:57:09;;;;;;;22.67;17.77;;;5.30;99.90;;;;;;4975096;28;20100;-62
2021/11/03 00:59:34;;;;;;;23.33;17.27;;;5.30;99.90;;;;;;4974048;28;20084;-63
2021/11/03 01:02:00;;;;;;;22.58;15.48;;;5.20;99.90;;;;;;4975629;28;20110;-62
2021/11/03 01:04:26;;;;;;;19.80;14.50;;;5.30;99.90;;;;;;4978694;28;20055;-62
2021/11/03 01:06:52;;;;;;;16.83;12.43;;;5.30;99.90;;;;;;4978496;28;20019;-62
2021/11/03 01:09:18;;;;;;;16.35;11.98;;;5.30;99.90;;;;;;4978215;28;20034;-62
2021/11/03 01:11:43;;;;;;;13.65;10.60;;;5.30;99.90;;;;;;4984494;28;20038;-62
2021/11/03 01:14:10;;;;;;;12.70;9.50;;;5.40;99.90;;;;;;4974964;28;20105;-62
2021/11/03 01:16:36;;;;;;;13.15;9.85;;;5.40;99.90;;;;;;4975722;28;20038;-63
2021/11/03 01:19:04;;;;;;;14.25;10.60;;;5.40;99.90;;;;;;4978053;28;20027;-62
2021/11/03 01:21:29;;;;;;;12.60;9.43;;;5.40;99.90;;;;;;4980521;28;20034;-62
2021/11/03 01:23:55;;;;;;;11.40;8.52;;;5.40;99.90;;;;;;4960910;28;20077;-62
2021/11/03 01:26:21;;;;;;;12.93;9.65;;;5.40;99.90;;;;;;4978226;28;20038;-62
2021/11/03 01:28:46;;;;;;;11.45;8.38;;;5.40;99.90;;;;;;4974293;28;20086;-62
2021/11/03 01:31:12;;;;;;;11.38;8.80;;;5.40;99.90;;;;;;4974785;28;20026;-62
2021/11/03 01:33:38;;;;;;;10.88;8.73;;;5.40;99.90;;;;;;4977999;28;20085;-62
2021/11/03 01:36:04;;;;;;;12.90;8.30;;;5.40;99.90;;;;;;4977261;28;20542;-62
2021/11/03 01:38:30;;;;;;;13.63;9.25;;;5.40;99.90;;;;;;4974735;28;20034;-62
2021/11/03 01:40:55;;;;;;;26.05;8.50;;;5.30;99.90;;;;;;4980469;28;20486;-62
2021/11/03 01:43:45;;;;;;;10.27;7.70;;;5.30;99.90;;;;;;4974239;28;20114;-62
2021/11/03 01:46:41;;;;;;;9.07;6.63;;;5.30;99.90;;;;;;4974404;28;20045;-62
2021/11/03 01:49:20;;;;;;;22.50;7.15;;;5.30;99.90;;;;;;4972437;28;20035;-62
2021/11/03 01:52:00;;;;;;;16.83;7.22;;;5.20;99.90;;;;;;4974080;28;20029;-62
2021/11/03 01:54:33;;;;;;;9.57;7.13;;;5.20;99.90;;;;;;4963997;28;20023;-62
2021/11/03 01:57:02;;;;;;;17.55;10.00;;;5.10;99.90;;;;;;4989844;28;20045;-62
2021/11/03 01:59:33;;;;;;;17.05;8.77;;;4.90;99.90;;;;;;4983913;28;20094;-62
2021/11/03 02:01:59;;;;;;;16.92;7.35;;;4.80;99.90;;;;;;4976553;28;20039;-62
2021/11/03 02:04:25;;;;;;;17.13;7.63;;;4.70;99.90;;;;;;4976033;28;20491;-62
2021/11/03 02:06:54;;;;;;;14.80;9.65;;;4.70;99.90;;;;;;4961289;28;20570;-62
2021/11/03 02:09:21;;;;;;;15.05;8.27;;;4.70;99.90;;;;;;4976495;28;20026;-62
2021/11/03 02:11:46;;;;;;;9.82;7.28;;;4.70;99.90;;;;;;4966245;28;20035;-62
2021/11/03 02:14:12;;;;;;;10.60;8.00;;;4.70;99.90;;;;;;4975250;28;20554;-62
2021/11/03 02:16:42;;;;;;;11.90;7.35;;;4.70;99.90;;;;;;4975243;28;20475;-62
2021/11/03 02:19:13;;;;;;;;;;;4.80;99.90;;;;;;4976442;28;20078;-62
2021/11/03 02:21:50;;;;;;;9.98;6.22;;;4.70;99.90;;;;;;4974897;28;19921;-62
2021/11/03 02:24:29;;;;;;;9.57;7.13;;;4.80;99.90;;;;;;4977848;28;20065;-63
2021/11/03 02:26:58;;;;;;;9.63;7.53;;;4.80;99.90;;;;;;4972895;28;20018;-62
2021/11/03 02:29:24;;;;;;;9.75;7.40;;;4.70;99.90;;;;;;4975840;28;20034;-62
2021/11/03 02:31:53;;;;;;;10.25;7.53;;;4.80;99.90;;;;;;4976759;28;20034;-62
2021/11/03 02:34:23;;;;;;;8.20;6.70;;;4.70;99.90;;;;;;4964723;28;20113;-63
2021/11/03 02:37:07;;;;;;;;;;;4.70;99.90;;;;;;4975283;28;20101;-62
2021/11/03 02:39:36;;;;;;;9.52;6.20;;;4.60;99.90;;;;;;4975738;28;20001;-62
2021/11/03 02:42:02;;;;;;;9.15;6.85;;;4.60;99.90;;;;;;4963475;28;20034;-62
2021/11/03 02:44:30;;;;;;;13.55;6.25;;;4.60;99.90;;;;;;4973284;28;20093;-62
2021/11/03 02:46:56;;;;;;;8.13;6.10;;;4.60;99.90;;;;;;4975188;28;20442;-62
2021/11/03 02:49:21;;;;;;;18.98;5.35;;;4.60;99.90;;;;;;4972832;28;20030;-62
2021/11/03 02:51:47;;;;;;;8.27;5.68;;;4.60;99.90;;;;;;4974390;28;20039;-62
2021/11/03 02:54:16;;;;;;;24.13;4.95;;;4.50;99.90;;;;;;4982683;28;20030;-62
2021/11/03 02:56:45;;;;;;;14.30;4.77;;;4.50;99.90;;;;;;4991986;28;20047;-62
2021/11/03 02:59:14;;;;;;;22.35;4.85;;;4.40;99.90;;;;;;4962580;28;20337;-62
2021/11/03 03:01:48;;;;;;;14.85;4.22;;;4.40;99.90;;;;;;4972117;28;20439;-62
2021/11/03 03:04:42;;;;;;;14.63;4.85;;;4.40;99.90;;;;;;4975117;28;20442;-62
2021/11/03 03:07:10;;;;;;;13.18;4.93;;;4.50;99.90;;;;;;4971377;28;20035;-62
2021/11/03 03:09:35;;;;;;;14.18;5.70;;;4.50;99.90;;;;;;4975449;28;20026;-62
2021/11/03 03:12:04;;;;;;;14.95;8.00;;;4.50;99.90;;;;;;4973125;28;20089;-62
2021/11/03 03:14:36;;;;;;;14.00;10.82;;;4.60;99.90;;;;;;4974112;28;20018;-62
2021/11/03 03:17:03;;;;;;;16.65;11.80;;;4.50;99.90;;;;;;4975265;28;20058;-62
2021/11/03 03:19:28;;;;;;;17.15;12.20;;;4.50;99.90;;;;;;4973881;28;20442;-62
2021/11/03 03:21:54;;;;;;;19.40;13.07;;;4.40;99.90;;;;;;4973727;28;20058;-62
2021/11/03 03:24:19;;;;;;;17.20;11.98;;;4.40;99.90;;;;;;4973868;28;20022;-62
2021/11/03 03:26:46;;;;;;;21.88;12.88;;;4.40;99.90;;;;;;4972882;28;20394;-62
2021/11/03 03:29:12;;;;;;;16.60;12.05;;;4.40;99.90;;;;;;4973992;28;20178;-62
2021/11/03 03:31:39;;;;;;;19.38;13.23;;;4.30;99.90;;;;;;4972255;28;20530;-62
2021/11/03 03:34:11;;;;;;;14.70;12.02;;;4.30;99.90;;;;;;4976121;28;20038;-62
2021/11/03 03:36:37;;;;;;;19.48;11.55;;;4.30;99.90;;;;;;4972877;28;20022;-62
2021/11/03 03:39:08;;;;;;;17.70;13.60;;;4.30;99.90;;;;;;4962298;28;20027;-62
2021/11/03 03:41:34;;;;;;;16.60;11.93;;;4.30;99.90;;;;;;4975125;28;20113;-62
2021/11/03 03:43:59;;;;;;;16.67;13.05;;;4.30;99.90;;;;;;4972150;28;20022;-62
2021/11/03 03:46:25;;;;;;;15.10;12.30;;;4.30;99.90;;;;;;4973366;28;20042;-62
2021/11/03 03:48:52;;;;;;;16.73;12.32;;;4.30;99.90;;;;;;4973852;28;20033;-62
2021/11/03 03:51:18;;;;;;;19.77;13.10;;;4.30;99.90;;;;;;4961791;28;20023;-62
2021/11/03 03:53:44;;;;;;;16.77;12.60;;;4.30;99.90;;;;;;4974744;28;20030;-62
2021/11/03 03:59:22;;;;;;;14.63;12.40;;;4.30;99.90;;;;;;4968233;28;20122;-62
2021/11/03 04:01:48;;;;;;;19.13;12.57;;;4.20;99.90;;;;;;4971223;28;20066;-62
2021/11/03 04:04:14;;;;;;;19.35;12.80;;;4.20;99.90;;;;;;4975419;28;20058;-62
2021/11/03 04:06:40;;;;;;;17.63;11.13;;;4.20;99.90;;;;;;4973085;28;20077;-62
2021/11/03 04:09:07;;;;;;;18.33;10.70;;;4.20;99.90;;;;;;4974165;28;20038;-62
2021/11/03 04:11:32;;;;;;;13.18;10.93;;;4.20;99.90;;;;;;4975224;28;20043;-62
2021/11/03 04:13:58;;;;;;;12.38;10.60;;;4.20;99.90;;;;;;4972932;28;20534;-62
2021/11/03 04:16:24;;;;;;;11.15;9.05;;;4.20;99.90;;;;;;4973090;28;20035;-62
2021/11/03 04:18:49;;;;;;;16.20;8.55;;;4.20;99.90;;;;;;4973014;28;20162;-62
2021/11/03 04:21:16;;;;;;;11.02;7.82;;;4.30;99.90;;;;;;4974003;28;20081;-62
2021/11/03 04:23:41;;;;;;;16.17;7.45;;;4.30;99.90;;;;;;4975459;28;20027;-62
2021/11/03 04:26:18;;;;;;;10.07;6.88;;;4.40;99.90;;;;;;4973613;28;20438;-62
2021/11/03 04:28:44;;;;;;;13.20;9.65;;;4.40;99.90;;;;;;4972144;28;20166;-62
2021/11/03 04:31:09;;;;;;;19.60;12.05;;;4.40;99.90;;;;;;4972980;28;20105;-62
2021/11/03 04:33:35;;;;;;;17.55;12.60;;;4.30;99.90;;;;;;4962277;28;20027;-62
2021/11/03 04:36:00;;;;;;;16.08;10.98;;;4.20;99.90;;;;;;4973232;28;20043;-62
2021/11/03 04:38:26;;;;;;;14.45;9.82;;;4.20;99.90;;;;;;4963788;28;20027;-62
2021/11/03 04:40:51;;;;;;;12.73;9.88;;;4.20;99.90;;;;;;4974763;28;20741;-62
2021/11/03 04:43:17;;;;;;;10.25;8.48;;;4.10;99.90;;;;;;4973290;28;20034;-62
2021/11/03 04:45:42;;;;;;;10.32;7.80;;;4.10;99.90;;;;;;4972109;28;20423;-62
2021/11/03 04:48:08;;;;;;;8.68;6.75;;;4.20;99.90;;;;;;4972604;28;20475;-62
2021/11/03 04:50:33;;;;;;;11.50;7.40;;;4.20;99.90;;;;;;4970997;28;20035;-62
2021/11/03 04:52:59;;;;;;;10.88;7.40;;;4.30;99.90;;;;;;4972818;28;20062;-62
2021/11/03 04:55:25;;;;;;;15.50;11.52;;;4.30;99.90;;;;;;4972801;28;20050;-62
2021/11/03 04:57:52;;;;;;;15.60;12.00;;;4.30;99.90;;;;;;4971310;28;20094;-62
2021/11/03 05:00:26;;;;;;;14.18;11.75;;;4.20;99.90;;;;;;4973832;28;20110;-62
2021/11/03 05:02:52;;;;;;;14.35;12.00;;;4.20;99.90;;;;;;4970870;28;20030;-62
2021/11/03 05:05:18;;;;;;;13.63;12.13;;;4.10;99.90;;;;;;4971064;28;20078;-62
2021/11/03 05:07:43;;;;;;;15.15;12.45;;;4.10;99.90;;;;;;4961976;28;20027;-62
2021/11/03 05:10:10;;;;;;;14.80;12.18;;;4.00;99.90;;;;;;4972626;28;20043;-62
2021/11/03 05:12:35;;;;;;;16.67;12.90;;;4.00;99.90;;;;;;4972027;28;20029;-62
2021/11/03 05:15:01;;;;;;;16.55;12.38;;;4.00;99.90;;;;;;4972511;28;20023;-62
2021/11/03 05:17:27;;;;;;;16.73;12.98;;;4.00;99.90;;;;;;4975334;28;20031;-62
2021/11/03 05:19:52;;;;;;;17.27;14.73;;;3.90;99.90;;;;;;4976633;28;20402;-62
2021/11/03 05:22:21;;;;;;;15.65;13.15;;;3.90;99.90;;;;;;4974898;28;20387;-62
2021/11/03 05:24:46;;;;;;;14.85;12.95;;;3.90;99.90;;;;;;4979266;28;20027;-62
2021/11/03 05:27:13;;;;;;;15.63;12.02;;;3.90;99.90;;;;;;4976810;28;20047;-62
2021/11/03 05:29:40;;;;;;;11.82;9.68;;;3.90;99.90;;;;;;4979190;28;20018;-62
2021/11/03 05:32:06;;;;;;;9.90;8.38;;;3.90;99.90;;;;;;4973874;28;20031;-62
2021/11/03 05:34:31;;;;;;;17.58;10.82;;;4.00;99.90;;;;;;4975527;28;20045;-62
2021/11/03 05:36:57;;;;;;;12.40;9.30;;;4.10;99.90;;;;;;4964575;28;20035;-62
2021/11/03 05:39:22;;;;;;;11.38;9.13;;;4.10;99.90;;;;;;4966143;28;20026;-62
2021/11/03 05:41:48;;;;;;;12.00;8.32;;;4.20;99.90;;;;;;4976979;28;20018;-62
2021/11/03 05:44:16;;;;;;;8.35;7.28;;;4.20;99.90;;;;;;4973808;28;20030;-62
2021/11/03 05:46:57;;;;;;;9.15;6.90;;;4.30;99.90;;;;;;4982441;28;20076;-62
2021/11/03 05:49:30;;;;;;;10.43;7.45;;;4.30;99.90;;;;;;4975923;28;20482;-62
2021/11/03 05:51:57;;;;;;;7.60;6.43;;;4.30;99.90;;;;;;4975991;28;20034;-62
2021/11/03 05:54:25;;;;;;;10.00;7.07;;;4.30;99.90;;;;;;4976189;28;20515;-62
2021/11/03 05:56:53;;;;;;;8.90;7.18;;;4.40;99.90;;;;;;4976417;28;20042;-62
2021/11/03 05:59:19;;;;;;;9.55;6.97;;;4.40;99.90;;;;;;4959696;28;20085;-62
2021/11/03 06:01:44;;;;;;;9.40;7.38;;;4.40;99.90;;;;;;4979854;28;20026;-62
2021/11/03 06:04:10;;;;;;;8.48;6.70;;;4.40;99.90;;;;;;4963651;28;20023;-62
2021/11/03 06:06:37;;;;;;;9.25;7.75;;;4.40;99.90;;;;;;4963109;28;20027;-62
2021/11/03 06:09:03;;;;;;;11.48;8.52;;;4.40;99.90;;;;;;4975645;28;20475;-62
2021/11/03 06:11:30;;;;;;;9.30;7.60;;;4.40;99.90;;;;;;4968938;28;20022;-62
2021/11/03 06:13:55;;;;;;;8.82;7.22;;;4.40;99.90;;;;;;4975039;28;20033;-62
2021/11/03 06:16:22;;;;;;;9.10;7.55;;;4.40;99.90;;;;;;4975620;28;20039;-62
2021/11/03 06:18:48;;;;;;;7.90;6.63;;;4.40;99.90;;;;;;4974889;28;20023;-62
2021/11/03 06:21:14;;;;;;;8.88;6.85;;;4.40;99.90;;;;;;4960316;28;20034;-62
2021/11/03 06:23:40;;;;;;;7.60;6.18;;;4.40;99.90;;;;;;4976577;28;20026;-62
2021/11/03 06:26:27;;;;;;;;;;;;;;;;;;;;;
2021/11/03 06:28:53;;;;;;;8.20;6.55;;;4.50;99.90;;;;;;4974757;28;20035;-62
2021/11/03 06:31:18;;;;;;;11.43;6.72;;;4.40;99.90;;;;;;4976163;28;20431;-62
2021/11/03 06:33:44;;;;;;;7.93;6.43;;;4.40;99.90;;;;;;4981588;28;20030;-62
2021/11/03 06:36:12;;;;;;;9.57;6.80;;;4.50;99.90;;;;;;4977505;28;20031;-62
2021/11/03 06:38:37;;;;;;;8.20;6.43;;;4.50;99.90;;;;;;4974026;28;20089;-62
2021/11/03 06:41:05;;;;;;;8.07;6.78;;;4.50;99.90;;;;;;4973746;28;20018;-62
2021/11/03 06:43:32;;;;;;;9.20;6.85;;;4.50;99.90;;;;;;4975707;28;20034;-62
2021/11/03 06:45:57;;;;;;;8.38;6.57;;;4.50;99.90;;;;;;4963922;28;20085;-62
2021/11/03 06:48:23;;;;;;;8.00;6.55;;;4.50;99.90;;;;;;4977485;28;20035;-62
2021/11/03 06:50:49;;;;;;;8.63;6.95;;;4.50;99.90;;;;;;4973767;28;20023;-62
2021/11/03 06:53:16;;;;;;;8.25;6.60;;;4.60;99.90;;;;;;4973360;28;20164;-62
2021/11/03 06:55:43;;;;;;;10.07;6.43;;;4.60;99.90;;;;;;4976540;28;20043;-62
2021/11/03 06:58:16;;;;;;;11.70;7.40;;;4.60;99.90;;;;;;4976496;28;20026;-62
2021/11/03 07:00:47;;;;;;;10.32;7.40;;;4.60;99.90;;;;;;4972484;28;20085;-62
2021/11/03 07:03:13;;;;;;;11.32;8.07;;;4.60;99.90;;;;;;4974995;28;20031;-62
2021/11/03 07:05:42;;;;;;;10.65;7.68;;;4.60;99.90;;;;;;4976150;28;20034;-62
2021/11/03 07:08:07;;;;;;;9.07;7.33;;;4.60;99.90;;;;;;4989196;28;20026;-62
2021/11/03 07:10:36;;;;;;;11.88;7.45;;;4.70;99.90;;;;;;4987059;28;20041;-62
2021/11/03 07:13:03;;;;;;;9.52;6.47;;;4.70;99.90;;;;;;4973457;28;20058;-62
2021/11/03 07:15:29;;;;;;;11.20;8.13;;;4.60;99.90;;;;;;4981205;28;20031;-62
2021/11/03 07:17:55;;;;;;;9.05;7.75;;;4.70;99.90;;;;;;4979516;28;20108;-62
2021/11/03 07:20:21;;;;;;;10.15;8.07;;;4.70;99.90;;;;;;4971623;28;20120;-62
2021/11/03 07:22:47;;;;;;;15.43;12.93;;;4.70;99.90;;;;;;4979907;28;20023;-62
2021/11/03 07:25:17;;;;;;;15.35;12.93;;;4.60;99.90;;;;;;4984086;28;20026;-62
2021/11/03 07:27:43;;;;;;;15.75;11.48;;;4.60;99.90;;;;;;4990143;28;20025;-62
2021/11/03 07:31:07;;;;;;;;;;;;;;;;;;;;;
2021/11/03 07:37:05;;;;;;;9.98;7.20;;;4.70;99.90;;;;;;4929868;28;20046;-61
2021/11/03 07:39:39;;;;;;;8.82;6.97;;;4.70;99.90;;;;;;4987520;28;20019;-62
2021/11/03 07:42:43;;;;;;;8.55;6.82;;;4.70;99.90;;;;;;4973437;28;20034;-62
2021/11/03 07:45:09;;;;;;;7.00;6.13;;;4.80;99.90;;;;;;4988531;28;20042;-62
2021/11/03 07:47:36;;;;;;;8.10;7.18;;;4.90;99.90;;;;;;4984804;28;20031;-62
2021/11/03 07:50:01;;;;;;;9.60;7.03;;;4.90;99.90;;;;;;4959595;28;20114;-62
2021/11/03 07:52:27;;;;;;;9.05;7.05;;;4.90;99.90;;;;;;4971650;28;20141;-62
2021/11/03 07:54:52;;;;;;;7.40;6.45;;;5.00;99.90;;;;;;4987810;28;20022;-62
2021/11/03 07:57:18;;;;;;;8.60;7.07;;;5.00;99.90;;;;;;4970428;28;20495;-62
2021/11/03 07:59:43;;;;;;;8.38;6.70;;;5.10;99.90;;;;;;4985725;28;20447;-62
2021/11/03 08:02:36;;;;;;;8.50;6.70;;;5.10;99.90;;;;;;4973664;28;20062;-62
2021/11/03 08:05:40;;;;;;;9.02;7.13;;;5.20;99.90;;;;;;4953338;28;20062;-62
2021/11/03 08:08:11;;;;;;;9.65;8.13;;;5.20;99.90;;;;;;4979472;28;20050;-62
2021/11/03 08:10:37;;;;;;;9.93;8.35;;;5.20;99.90;;;;;;4971030;28;20085;-62
2021/11/03 08:13:04;;;;;;;11.07;9.10;;;5.20;99.90;;;;;;4970493;28;20062;-62
2021/11/03 08:15:29;;;;;;;10.07;8.23;;;5.30;99.90;;;;;;4970790;28;20078;-62
2021/11/03 08:17:57;;;;;;;10.00;8.05;;;5.30;99.90;;;;;;4973500;28;20043;-62
2021/11/03 08:20:25;;;;;;;10.25;8.25;;;5.30;99.90;;;;;;4972105;28;20030;-62
2021/11/03 08:22:51;;;;;;;10.98;8.20;;;5.40;99.90;;;;;;4970811;28;20054;-62
2021/11/03 08:25:17;;;;;;;10.80;8.80;;;5.40;99.90;;;;;;4970735;28;20057;-62
2021/11/03 08:27:43;;;;;;;11.02;8.88;;;5.50;99.90;;;;;;4973427;28;20038;-62
2021/11/03 08:30:34;;;;;;;;;;;;;;;;;;;;;
2021/11/03 08:33:08;;;;;;;11.65;8.68;;;5.60;99.90;;;;;;4962123;28;20039;-62
2021/11/03 08:35:36;;;;;;;9.27;8.02;;;5.60;99.90;;;;;;4982956;28;20076;-62
2021/11/03 08:38:06;;;;;;;10.27;8.15;;;5.70;99.90;;;;;;4983410;28;20027;-62
2021/11/03 08:40:34;;;;;;;11.68;8.70;;;5.70;99.90;;;;;;4957536;28;20431;-62
2021/11/03 08:43:02;;;;;;;9.82;8.43;;;5.80;99.90;;;;;;4978525;28;20097;-62
2021/11/03 08:45:28;;;;;;;10.60;8.73;;;5.80;99.90;;;;;;4963500;28;20026;-62
2021/11/03 08:47:54;;;;;;;10.88;8.73;;;5.90;99.90;;;;;;4980617;28;20033;-62
2021/11/03 08:50:23;;;;;;;10.50;8.65;;;6.00;99.90;;;;;;4974419;28;20038;-62
2021/11/03 08:52:49;;;;;;;12.30;9.52;;;6.00;99.90;;;;;;4974899;28;20066;-62
2021/11/03 08:55:15;;;;;;;13.77;10.60;;;6.00;99.90;;;;;;4978595;28;20037;-61
2021/11/03 08:57:42;;;;;;;11.93;9.63;;;6.10;99.90;;;;;;4974111;28;20026;-62
2021/11/03 09:00:12;;;;;;;12.20;10.55;;;6.20;99.90;;;;;;4974260;28;20079;-62
2021/11/03 09:02:38;;;;;;;13.68;10.75;;;6.20;99.90;;;;;;4975817;28;20050;-62
2021/11/03 09:05:04;;;;;;;13.90;11.15;;;6.20;99.90;;;;;;4973139;28;20490;-62
2021/11/03 09:07:33;;;;;;;14.10;10.80;;;6.20;99.90;;;;;;4973737;28;20531;-62
2021/11/03 09:10:02;;;;;;;12.07;9.88;;;6.30;99.90;;;;;;4958886;28;20061;-62
2021/11/03 09:12:42;;;;;;;12.20;9.65;;;6.40;99.90;;;;;;4973658;28;20030;-62
2021/11/03 09:15:08;;;;;;;16.45;12.63;;;6.40;99.90;;;;;;4975004;28;20030;-62
2021/11/03 09:17:34;;;;;;;15.52;12.20;;;6.40;99.90;;;;;;4984509;28;20122;-62
2021/11/03 09:20:00;;;;;;;16.27;12.45;;;6.40;99.90;;;;;;4988855;28;20499;-62
2021/11/03 09:22:25;;;;;;;16.85;12.75;;;6.50;99.90;;;;;;4979206;28;20038;-62
2021/11/03 09:24:51;;;;;;;15.07;12.25;;;6.50;99.90;;;;;;4974784;28;20046;-62
2021/11/03 09:27:17;;;;;;;16.73;11.77;;;6.60;99.90;;;;;;4981593;28;20507;-62
2021/11/03 09:29:45;;;;;;;18.40;12.15;;;6.60;99.90;;;;;;4976487;28;20041;-62
2021/11/03 09:32:14;;;;;;;18.98;13.50;;;6.70;99.90;;;;;;4976654;28;20034;-62
2021/11/03 09:34:45;;;;;;;14.82;11.95;;;6.70;99.90;;;;;;4984120;28;20124;-62
2021/11/03 09:37:14;;;;;;;14.80;12.18;;;6.70;99.90;;;;;;4972349;28;20177;-62
2021/11/03 09:39:42;;;;;;;14.50;11.82;;;6.80;99.90;;;;;;4985449;28;20025;-62
2021/11/03 09:42:11;;;;;;;16.17;12.68;;;6.80;99.90;;;;;;4982651;28;20113;-62
2021/11/03 09:44:37;;;;;;;20.33;13.02;;;6.90;99.90;;;;;;4994418;28;20471;-62
2021/11/03 09:47:15;;;;;;;19.50;13.70;;;6.90;99.90;;;;;;4981460;28;20033;-62
2021/11/03 09:50:03;;;;;;;;;;;;;;;;;;;;;
2021/11/03 09:53:23;;;;;;;;;;;;;;;;;;;;;
2021/11/03 10:03:34;;;;;;;13.82;10.70;;;7.10;99.90;;;;;;4916915;29;20059;-62
2021/11/03 10:06:24;;;;;;;;;;;;;;;;;;;;;
2021/11/03 10:08:52;;;;;;;17.55;13.38;;;7.20;99.90;;;;;;4923198;29;20046;-62
2021/11/03 10:11:18;;;;;;;17.92;13.93;;;7.30;99.90;;;;;;4922134;29;20112;-62
2021/11/03 10:13:45;;;;;;;16.00;12.55;;;7.30;99.90;;;;;;4930607;28;20132;-62
2021/11/03 10:16:47;;;;;;;;;;;;;;;;;;;;;
2021/11/03 10:19:13;;;;;;;16.15;12.73;;;7.50;99.90;;;;;;4980275;28;20049;-62
2021/11/03 10:25:19;;;;;;;17.10;13.05;;;7.50;99.90;;;;;;4860149;29;20039;-62
2021/11/03 10:27:51;;;;;;;14.57;11.45;;;7.50;99.90;;;;;;4928113;28;20034;-62
2021/11/03 10:30:49;;;;;;;12.55;10.35;;;7.60;99.90;;;;;;4976306;28;20465;-63
2021/11/03 10:33:28;;;;;;;12.98;10.35;;;7.70;99.90;;;;;;4984225;28;20026;-62
2021/11/03 10:36:01;;;;;;;13.93;10.68;;;7.90;99.90;;;;;;4974265;28;20088;-62
2021/11/03 10:38:38;;;;;;;15.45;11.52;;;8.00;99.90;;;;;;4975707;28;20023;-62
2021/11/03 10:41:13;;;;;;;15.32;11.57;;;8.10;99.90;;;;;;4975755;28;20022;-62
2021/11/03 10:47:19;;;;;;;12.70;10.38;;;8.30;99.90;;;;;;4934124;28;20050;-62
2021/11/03 10:50:41;;;;;;;15.10;12.38;;;8.40;99.90;;;;;;4975125;28;20455;-62
2021/11/03 10:53:26;;;;;;;15.00;11.35;;;8.50;99.90;;;;;;4932534;29;20035;-62
2021/11/03 10:56:09;;;;;;;13.55;11.23;;;8.60;99.90;;;;;;4980331;28;20109;-62
2021/11/03 10:58:50;;;;;;;14.55;11.90;;;8.60;99.90;;;;;;4977203;28;20376;-62
2021/11/03 11:01:29;;;;;;;13.50;10.95;;;8.60;99.90;;;;;;4975880;28;20036;-62
2021/11/03 11:04:05;;;;;;;12.77;10.55;;;8.70;99.90;;;;;;4973250;28;20027;-61
2021/11/03 11:06:40;;;;;;;12.30;10.45;;;8.70;99.90;;;;;;4972841;28;20030;-62
2021/11/03 11:09:22;;;;;;;12.65;9.95;;;8.70;99.90;;;;;;4971260;28;20047;-62
2021/11/03 11:11:51;;;;;;;13.10;10.48;;;8.80;99.90;;;;;;4949739;28;20042;-62
2021/11/03 11:14:22;;;;;;;12.25;10.27;;;8.80;99.90;;;;;;4963540;28;20019;-61
2021/11/03 11:17:27;;;;;;;14.68;12.52;;;8.90;99.90;;;;;;4973294;28;20058;-61
2021/11/03 11:20:19;;;;;;;16.48;13.95;;;9.00;99.90;;;;;;4943479;28;20028;-61
2021/11/03 11:23:13;;;;;;;17.63;14.75;;;9.00;99.90;;;;;;4970535;28;20042;-61
2021/11/03 11:25:42;;;;;;;13.73;11.95;;;9.10;99.90;;;;;;4945346;28;20530;-61
2021/11/03 11:28:23;;;;;;;16.85;12.07;;;9.10;99.90;;;;;;4952320;28;20652;-61
2021/11/03 11:31:29;;;;;;;13.20;11.27;;;9.20;99.90;;;;;;4962267;28;20081;-61
2021/11/03 11:45:02;;;;;;;17.92;14.13;;;9.30;99.90;;;;;;4863778;29;20150;-61
2021/11/03 11:47:46;;;;;;;18.20;14.75;;;9.30;99.90;;;;;;4823493;29;20506;-61
2021/11/03 11:50:28;;;;;;;16.30;13.20;;;9.30;99.90;;;;;;4948260;28;20070;-61
2021/11/03 11:52:55;;;;;;;15.85;12.75;;;9.40;99.90;;;;;;4973330;28;20050;-61
2021/11/03 11:55:47;;;;;;;15.43;11.15;;;9.30;99.90;;;;;;4988517;28;20101;-61
2021/11/03 11:58:24;;;;;;;15.00;12.55;;;9.40;99.90;;;;;;4955273;28;20090;-61
2021/11/03 12:01:14;;;;;;;15.40;12.00;;;9.40;99.90;;;;;;4977679;28;20034;-61
2021/11/03 12:03:45;;;;;;;16.58;13.27;;;9.40;99.90;;;;;;4991527;28;20035;-61
2021/11/03 12:06:11;;;;;;;16.05;13.50;;;9.40;99.90;;;;;;4981813;28;20034;-61
2021/11/03 12:08:59;;;;;;;21.23;16.48;;;9.40;99.90;;;;;;4977801;28;20031;-61
2021/11/03 12:11:27;;;;;;;18.35;14.63;;;9.40;99.90;;;;;;4974247;28;20037;-61
2021/11/03 12:13:56;;;;;;;18.63;14.40;;;9.40;99.90;;;;;;4987833;28;20022;-61
2021/11/03 12:16:23;;;;;;;18.38;14.15;;;9.40;99.90;;;;;;4973803;28;20034;-61
2021/11/03 12:19:25;;;;;;;18.17;13.88;;;9.50;99.90;;;;;;4978275;28;20034;-61
2021/11/03 12:22:00;;;;;;;15.93;12.82;;;9.60;99.90;;;;;;4959186;28;20063;-61
2021/11/03 12:24:49;;;;;;;21.48;18.23;;;9.60;99.90;;;;;;4992277;28;20056;-61
2021/11/03 12:27:24;;;;;;;19.40;15.45;;;9.60;99.90;;;;;;4977466;28;20046;-61
2021/11/03 12:30:03;;;;;;;18.52;14.73;;;9.60;99.90;;;;;;4977208;28;20023;-61
2021/11/03 12:32:44;;;;;;;19.42;13.57;;;9.60;99.90;;;;;;4980482;28;20031;-61
2021/11/03 12:35:23;;;;;;;16.05;12.88;;;9.60;99.90;;;;;;4987602;28;20054;-61
2021/11/03 12:39:06;;;;;;;16.00;12.75;;;9.70;99.90;;;;;;4983540;28;20041;-61
2021/11/03 12:41:47;;;;;;;16.90;13.82;;;9.80;99.90;;;;;;4940525;28;20047;-61
2021/11/03 12:44:21;;;;;;;15.93;13.38;;;9.80;99.90;;;;;;4976149;28;20110;-62
2021/11/03 12:46:47;;;;;;;16.45;13.18;;;9.80;99.90;;;;;;4984653;28;20101;-62
2021/11/03 12:49:20;;;;;;;18.42;13.13;;;9.90;99.90;;;;;;4981608;28;20544;-61
2021/11/03 12:51:56;;;;;;;17.13;12.52;;;9.90;99.90;;;;;;4984502;28;20065;-61
2021/11/03 12:54:27;;;;;;;16.50;13.25;;;9.90;99.90;;;;;;4983124;28;20057;-61
2021/11/03 12:56:57;;;;;;;17.50;14.05;;;9.90;99.90;;;;;;4985250;28;20050;-61
2021/11/03 12:59:28;;;;;;;16.25;13.80;;;9.90;99.90;;;;;;4975995;28;20131;-61
2021/11/03 13:01:58;;;;;;;17.52;13.98;;;10.00;99.90;;;;;;4967475;28;20029;-61
2021/11/03 13:04:35;;;;;;;16.23;12.77;;;10.00;99.90;;;;;;4974924;28;20026;-61
2021/11/03 13:07:20;;;;;;;;;;;;;;;;;;;;;
2021/11/03 13:10:04;;;;;;;20.23;14.43;;;10.10;99.90;;;;;;4964442;28;20489;-61
2021/11/03 13:12:36;;;;;;;17.70;13.10;;;10.10;99.90;;;;;;4969171;28;20031;-62
2021/11/03 13:15:17;;;;;;;16.23;12.80;;;10.00;99.90;;;;;;4967207;28;20113;-62
2021/11/03 13:18:19;;;;;;;17.65;14.48;;;10.10;99.90;;;;;;4974767;28;20070;-61
2021/11/03 13:20:59;;;;;;;17.27;13.43;;;10.10;99.90;;;;;;4975281;28;20027;-61
2021/11/03 13:23:25;;;;;;;;;;;10.10;99.90;;;;;;4975819;28;20403;-61
2021/11/03 13:25:58;;;;;;;14.45;11.95;;;10.00;99.90;;;;;;4976041;28;19911;-61
2021/11/03 13:28:36;;;;;;;18.17;13.77;;;10.00;99.90;;;;;;4975247;28;20050;-61
2021/11/03 13:31:05;;;;;;;17.63;14.13;;;10.00;99.90;;;;;;4970959;28;20031;-61
2021/11/03 13:33:56;;;;;;;16.17;13.48;;;10.10;99.90;;;;;;4974688;28;20502;-62
2021/11/03 13:36:29;;;;;;;17.77;15.40;;;10.10;99.90;;;;;;4975448;28;20035;-61
2021/11/03 13:39:05;;;;;;;18.95;15.70;;;10.10;99.90;;;;;;4974505;28;20507;-61
2021/11/03 13:41:38;;;;;;;18.88;15.25;;;10.10;99.90;;;;;;4975533;28;20060;-61
2021/11/03 13:44:30;;;;;;;22.08;18.42;;;10.10;99.90;;;;;;4973950;28;20085;-61
2021/11/03 13:46:58;;;;;;;20.23;16.83;;;10.00;99.90;;;;;;4974866;28;20026;-62